createdAt,value
2018-10-09T00:00:18.830Z,12.50
2018-10-09T00:02:47.412Z,11.77
2018-10-09T00:05:15.966Z,11.73
2018-10-09T00:07:44.402Z,10.60
2018-10-09T00:10:12.850Z,9.53
2018-10-09T00:12:41.291Z,9.73
2018-10-09T00:15:10.064Z,16.20
2018-10-09T00:17:38.572Z,11.37
2018-10-09T00:20:07.278Z,10.97
2018-10-09T00:22:35.719Z,9.10
2018-10-09T00:25:04.335Z,12.03
2018-10-09T00:27:32.730Z,12.17
2018-10-09T00:30:01.281Z,9.77
2018-10-09T00:32:29.707Z,10.33
2018-10-09T00:34:58.130Z,9.90
2018-10-09T00:37:26.560Z,14.10
2018-10-09T00:39:54.993Z,11.37
2018-10-09T00:42:23.558Z,11.53
2018-10-09T00:44:52.147Z,13.80
2018-10-09T00:47:20.632Z,10.80
2018-10-09T00:49:49.224Z,10.17
2018-10-09T00:52:17.732Z,8.63
2018-10-09T00:54:46.337Z,10.20
2018-10-09T00:57:14.752Z,8.13
2018-10-09T00:59:43.236Z,10.37
2018-10-09T01:02:11.816Z,10.83
2018-10-09T01:04:40.260Z,12.00
2018-10-09T01:07:09.327Z,13.90
2018-10-09T01:09:37.780Z,10.90
2018-10-09T01:12:06.370Z,9.77
2018-10-09T01:14:34.812Z,8.07
2018-10-09T01:17:03.664Z,12.37
2018-10-09T01:19:32.243Z,11.03
2018-10-09T01:22:00.657Z,9.90
2018-10-09T01:24:29.697Z,9.77
2018-10-09T01:26:58.102Z,9.90
2018-10-09T01:29:26.667Z,15.80
2018-10-09T01:31:55.110Z,12.40
2018-10-09T01:34:23.527Z,12.20
2018-10-09T01:36:52.368Z,8.63
2018-10-09T01:39:20.817Z,10.97
2018-10-09T01:41:49.246Z,10.77
2018-10-09T01:44:17.770Z,9.20
2018-10-09T01:46:46.203Z,11.67
2018-10-09T01:49:14.687Z,9.77
2018-10-09T01:51:44.352Z,9.20
2018-10-09T01:54:12.822Z,13.27
2018-10-09T01:56:41.339Z,11.87
2018-10-09T01:59:09.751Z,13.53
2018-10-09T02:01:38.308Z,11.50
2018-10-09T02:04:06.867Z,10.93
2018-10-09T02:06:35.317Z,12.50
2018-10-09T02:09:04.523Z,10.40
2018-10-09T02:11:32.957Z,8.63
2018-10-09T02:14:01.498Z,11.00
2018-10-09T02:16:30.104Z,11.97
2018-10-09T02:18:58.680Z,11.77
2018-10-09T02:21:27.085Z,10.37
2018-10-09T02:23:55.585Z,11.37
2018-10-09T02:26:24.021Z,11.97
2018-10-09T02:28:52.880Z,12.03
2018-10-09T02:31:21.434Z,10.00
2018-10-09T02:33:49.913Z,13.60
2018-10-09T02:36:18.363Z,12.53
2018-10-09T02:38:46.856Z,13.90
2018-10-09T02:41:15.287Z,18.93
2018-10-09T02:43:43.809Z,13.00
2018-10-09T02:46:12.321Z,13.93
2018-10-09T02:48:40.862Z,11.73
2018-10-09T02:51:09.861Z,12.93
2018-10-09T02:53:38.342Z,14.33
2018-10-09T02:56:06.968Z,14.60
2018-10-09T02:58:35.387Z,14.37
2018-10-09T03:01:03.824Z,11.63
2018-10-09T03:03:32.262Z,14.80
2018-10-09T03:06:00.761Z,14.27
2018-10-09T03:08:29.277Z,14.30
2018-10-09T03:10:58.988Z,13.43
2018-10-09T03:13:27.562Z,12.17
2018-10-09T03:15:55.999Z,10.13
2018-10-09T03:18:24.402Z,12.83
2018-10-09T03:20:52.888Z,12.10
2018-10-09T03:23:21.506Z,12.30
2018-10-09T03:25:49.950Z,14.53
2018-10-09T03:28:18.478Z,14.40
2018-10-09T03:30:46.982Z,11.33
2018-10-09T03:33:15.426Z,13.43
2018-10-09T03:35:44.553Z,12.57
2018-10-09T03:38:13.012Z,13.97
2018-10-09T03:40:41.493Z,13.43
2018-10-09T03:43:10.253Z,15.90
2018-10-09T03:45:38.691Z,11.40
2018-10-09T03:48:08.661Z,10.80
2018-10-09T03:50:37.108Z,12.57
2018-10-09T03:53:05.641Z,13.27
2018-10-09T03:55:34.074Z,12.73
2018-10-09T04:00:37.246Z,12.47
2018-10-09T04:03:05.664Z,10.90
2018-10-09T04:05:34.076Z,10.90
2018-10-09T04:08:02.513Z,12.77
2018-10-09T04:10:31.050Z,11.10
2018-10-09T04:12:59.537Z,14.40
2018-10-09T04:15:27.985Z,12.53
2018-10-09T04:17:56.409Z,13.53
2018-10-09T04:20:24.871Z,12.87
2018-10-09T04:22:53.589Z,12.07
2018-10-09T04:25:22.631Z,11.70
2018-10-09T04:27:51.077Z,12.93
2018-10-09T04:30:19.641Z,15.17
2018-10-09T04:32:48.149Z,14.53
2018-10-09T04:35:16.701Z,13.20
2018-10-09T04:37:45.672Z,14.03
2018-10-09T04:40:14.116Z,13.57
2018-10-09T04:42:43.261Z,14.87
2018-10-09T04:45:11.763Z,14.17
2018-10-09T04:47:40.231Z,11.43
2018-10-09T04:50:08.671Z,11.40
2018-10-09T04:52:37.145Z,11.37
2018-10-09T04:55:05.727Z,12.57
2018-10-09T04:57:34.147Z,15.60
2018-10-09T05:00:02.702Z,14.20
2018-10-09T05:02:31.126Z,16.80
2018-10-09T05:04:59.553Z,12.50
2018-10-09T05:07:28.092Z,13.83
2018-10-09T05:09:56.533Z,11.87
2018-10-09T05:12:24.961Z,17.50
2018-10-09T05:14:53.403Z,10.57
2018-10-09T05:17:21.901Z,12.13
2018-10-09T05:19:50.333Z,11.90
2018-10-09T05:22:18.777Z,13.80
2018-10-09T05:24:47.477Z,12.50
2018-10-09T05:27:16.047Z,13.23
2018-10-09T05:29:44.542Z,12.03
2018-10-09T05:32:13.041Z,10.20
2018-10-09T05:34:41.605Z,16.47
2018-10-09T05:37:10.189Z,13.27
2018-10-09T05:39:38.782Z,14.60
2018-10-09T05:42:07.255Z,10.93
2018-10-09T05:44:35.724Z,22.37
2018-10-09T05:47:04.177Z,16.17
2018-10-09T05:49:32.630Z,10.57
2018-10-09T05:52:01.086Z,14.20
2018-10-09T05:54:29.517Z,12.00
2018-10-09T05:56:57.948Z,11.30
2018-10-09T05:59:26.428Z,13.43
2018-10-09T06:01:54.903Z,11.00
2018-10-09T06:04:23.352Z,15.93
2018-10-09T06:06:51.857Z,16.53
2018-10-09T06:09:20.359Z,11.57
2018-10-09T06:11:48.826Z,12.83
2018-10-09T06:14:17.305Z,11.43
2018-10-09T06:16:45.763Z,15.00
2018-10-09T06:19:14.208Z,14.83
2018-10-09T06:21:42.713Z,13.90
2018-10-09T06:24:11.157Z,14.07
2018-10-09T06:26:40.284Z,14.67
2018-10-09T06:29:09.595Z,17.27
2018-10-09T06:31:38.882Z,18.13
2018-10-09T06:34:08.156Z,11.27
2018-10-09T06:36:36.874Z,16.17
2018-10-09T06:39:08.894Z,13.13
2018-10-09T06:41:38.205Z,13.97
2018-10-09T06:44:07.042Z,13.97
2018-10-09T06:46:36.356Z,11.37
2018-10-09T06:49:05.668Z,14.40
2018-10-09T06:51:34.829Z,13.87
2018-10-09T06:54:04.248Z,14.27
2018-10-09T06:56:33.007Z,15.77
2018-10-09T06:59:02.276Z,15.83
2018-10-09T07:01:31.429Z,12.73
2018-10-09T07:04:00.657Z,16.53
2018-10-09T07:06:29.597Z,14.43
2018-10-09T07:08:58.336Z,14.87
2018-10-09T07:11:27.234Z,12.17
2018-10-09T07:13:56.224Z,12.93
2018-10-09T07:16:25.054Z,15.17
2018-10-09T07:18:54.101Z,16.10
2018-10-09T07:21:23.834Z,15.83
2018-10-09T07:23:52.710Z,15.50
2018-10-09T07:26:21.818Z,13.60
2018-10-09T07:28:50.645Z,16.90
2018-10-09T07:31:19.797Z,15.10
2018-10-09T07:33:48.672Z,16.40
2018-10-09T07:36:17.778Z,13.93
2018-10-09T07:38:46.804Z,15.57
2018-10-09T07:41:15.668Z,15.93
2018-10-09T07:43:44.892Z,17.37
2018-10-09T07:46:13.669Z,22.23
2018-10-09T07:48:42.646Z,14.87
2018-10-09T07:51:11.738Z,17.27
2018-10-09T07:53:40.602Z,18.60
2018-10-09T07:56:09.477Z,18.90
2018-10-09T07:58:38.342Z,14.37
2018-10-09T08:01:07.135Z,16.63
2018-10-09T08:03:36.007Z,16.53
2018-10-09T08:06:05.200Z,18.80
2018-10-09T08:08:33.982Z,16.17
2018-10-09T08:11:02.918Z,17.20
2018-10-09T08:13:31.772Z,14.87
2018-10-09T08:16:00.909Z,18.87
2018-10-09T08:18:30.258Z,16.13
2018-10-09T08:20:59.500Z,20.23
2018-10-09T08:23:28.310Z,25.27
2018-10-09T08:25:57.194Z,17.87
2018-10-09T08:28:26.000Z,19.40
2018-10-09T08:30:54.782Z,15.63
2018-10-09T08:33:23.604Z,15.70
2018-10-09T08:35:52.442Z,17.90
2018-10-09T08:38:21.263Z,17.33
2018-10-09T08:40:50.404Z,18.47
2018-10-09T08:43:19.284Z,21.57
2018-10-09T08:45:48.168Z,21.20
2018-10-09T08:48:17.044Z,16.73
2018-10-09T08:50:45.825Z,18.57
2018-10-09T08:53:14.646Z,17.67
2018-10-09T08:55:43.557Z,19.00
2018-10-09T08:58:12.449Z,18.53
2018-10-09T09:00:41.246Z,16.47
2018-10-09T09:03:10.056Z,20.13
2018-10-09T09:05:38.870Z,20.83
2018-10-09T09:08:07.801Z,18.07
2018-10-09T09:10:36.869Z,22.07
2018-10-09T09:13:05.855Z,28.80
2018-10-09T09:15:34.775Z,20.33
2018-10-09T09:18:03.802Z,20.67
2018-10-09T09:23:16.014Z,23.50
2018-10-09T09:26:10.588Z,22.33
2018-10-09T09:42:14.315Z,22.63
2018-10-09T09:44:53.786Z,21.23
2018-10-09T09:47:22.820Z,25.30
2018-10-09T09:49:52.223Z,21.20
2018-10-09T09:52:21.934Z,21.63
2018-10-09T09:54:51.141Z,23.13
2018-10-09T09:57:20.161Z,23.67
2018-10-09T09:59:49.131Z,26.00
2018-10-09T10:02:17.983Z,25.20
2018-10-09T10:04:47.044Z,21.80
2018-10-09T10:07:16.323Z,22.90
2018-10-09T10:09:45.541Z,23.67
2018-10-09T10:12:14.705Z,23.60
2018-10-09T10:14:44.183Z,21.57
2018-10-09T10:17:13.469Z,22.77
2018-10-09T10:19:49.640Z,22.67
2018-10-09T10:22:36.763Z,23.30
2018-10-09T10:29:25.366Z,21.13
2018-10-09T10:49:41.239Z,22.47
2018-10-09T10:52:13.646Z,20.47
2018-10-09T14:32:52.272Z,10.93
2018-10-09T16:33:06.524Z,9.50
2018-10-09T16:38:55.089Z,9.53
2018-10-09T16:41:23.981Z,10.63
2018-10-09T16:43:52.879Z,9.07
2018-10-09T16:46:21.402Z,8.30
2018-10-09T16:48:57.050Z,9.10
2018-10-09T16:51:25.548Z,8.10
2018-10-09T16:53:54.094Z,8.27
2018-10-09T16:56:23.714Z,9.77
2018-10-09T16:58:52.232Z,11.07
2018-10-09T17:01:20.716Z,10.90
2018-10-09T17:03:49.629Z,14.20
2018-10-09T17:06:18.255Z,12.80
2018-10-09T17:08:53.512Z,13.97
2018-10-09T17:11:23.552Z,14.33
2018-10-09T17:13:52.047Z,11.00
2018-10-09T17:16:47.861Z,10.20
2018-10-09T17:19:16.319Z,10.63
2018-10-09T17:21:44.893Z,11.67
2018-10-09T17:24:14.014Z,10.23
2018-10-09T17:26:42.578Z,10.90
2018-10-09T17:29:11.225Z,9.20
2018-10-09T17:31:39.698Z,10.40
2018-10-09T17:34:08.177Z,10.97
2018-10-09T17:36:36.634Z,10.33
2018-10-09T17:39:08.109Z,9.90
2018-10-09T17:41:36.615Z,9.87
2018-10-09T17:44:05.108Z,13.03
2018-10-09T17:46:33.795Z,9.53
2018-10-09T17:49:05.229Z,10.63
2018-10-09T17:51:33.674Z,10.30
2018-10-09T17:54:02.340Z,10.37
2018-10-09T17:56:30.892Z,10.33
2018-10-09T17:58:59.358Z,10.37
2018-10-09T18:01:28.019Z,11.10
2018-10-09T18:03:56.564Z,9.27
2018-10-09T18:06:25.021Z,12.37
2018-10-09T18:08:53.820Z,9.07
2018-10-09T18:11:22.363Z,10.43
2018-10-09T18:13:50.835Z,10.70
2018-10-09T18:16:19.280Z,11.33
2018-10-09T18:18:47.748Z,10.13
2018-10-09T18:21:16.167Z,10.27
2018-10-09T18:23:44.703Z,9.93
2018-10-09T18:26:13.246Z,11.37
2018-10-09T18:28:41.691Z,8.90
2018-10-09T18:31:10.151Z,8.00
2018-10-09T18:33:38.635Z,12.23
2018-10-09T18:36:07.538Z,8.87
2018-10-09T18:38:36.091Z,10.67
2018-10-09T18:41:04.640Z,10.97
2018-10-09T18:43:34.010Z,9.67
2018-10-09T18:46:02.550Z,9.27
2018-10-09T18:48:30.994Z,9.87
2018-10-09T18:50:59.469Z,8.63
2018-10-09T18:53:28.090Z,9.47
2018-10-09T18:55:56.531Z,8.20
2018-10-09T18:58:25.078Z,7.80
2018-10-09T19:00:53.526Z,9.70
2018-10-09T19:03:21.964Z,7.93
2018-10-09T19:05:50.564Z,8.20
2018-10-09T19:08:19.246Z,8.37
2018-10-09T19:10:47.870Z,8.80
2018-10-09T19:15:48.398Z,12.10
2018-10-09T19:18:16.884Z,8.57
2018-10-09T19:20:45.456Z,9.57
2018-10-09T19:23:14.051Z,9.13
2018-10-09T19:25:42.527Z,9.47
2018-10-09T19:28:10.974Z,11.17
2018-10-09T19:30:39.490Z,10.63
2018-10-09T19:33:07.944Z,9.17
2018-10-09T19:35:36.887Z,11.07
2018-10-09T19:38:05.433Z,11.90
2018-10-09T19:40:35.333Z,13.80
2018-10-09T19:43:03.772Z,11.30
2018-10-09T19:45:32.320Z,13.33
2018-10-09T19:48:01.655Z,13.00
2018-10-09T19:50:30.157Z,13.90
2018-10-09T19:52:58.749Z,18.40
2018-10-09T19:55:27.313Z,13.43
2018-10-09T19:57:55.835Z,16.40
2018-10-09T20:00:24.365Z,15.73
2018-10-09T20:02:52.941Z,15.10
2018-10-09T20:05:21.463Z,15.83
2018-10-09T20:07:50.185Z,18.50
2018-10-09T20:10:18.549Z,17.07
2018-10-09T20:12:47.081Z,18.27
2018-10-09T20:15:15.685Z,17.40
2018-10-09T20:17:44.240Z,20.40
2018-10-09T20:20:12.869Z,22.50
2018-10-09T20:22:41.373Z,22.17
2018-10-09T20:25:09.833Z,21.67
2018-10-09T20:27:38.295Z,22.17
2018-10-09T20:30:06.845Z,21.97
2018-10-09T20:32:35.344Z,22.47
2018-10-09T20:35:03.958Z,25.67
2018-10-09T20:37:32.434Z,22.00
2018-10-09T20:40:07.547Z,22.07
2018-10-09T20:42:36.161Z,22.43
2018-10-09T20:45:04.909Z,24.97
2018-10-09T20:47:38.877Z,23.13
2018-10-09T20:50:07.649Z,24.87
2018-10-09T20:52:36.212Z,25.53
2018-10-09T20:55:04.917Z,24.87
2018-10-09T20:57:33.361Z,26.03
2018-10-09T21:00:02.607Z,31.03
2018-10-09T21:02:31.114Z,26.37
2018-10-09T21:05:04.065Z,28.43
2018-10-09T21:07:32.628Z,28.57
2018-10-09T21:10:14.613Z,29.17
2018-10-09T21:12:43.098Z,25.50
2018-10-09T21:15:11.551Z,27.83
2018-10-09T21:17:40.300Z,32.60
2018-10-09T21:20:08.781Z,27.37
2018-10-09T21:22:37.257Z,27.23
2018-10-09T21:25:05.736Z,26.30
2018-10-09T21:27:34.379Z,29.97
2018-10-09T21:30:02.899Z,26.10
2018-10-09T21:32:31.351Z,29.43
2018-10-09T21:34:59.812Z,25.87
2018-10-09T21:37:28.274Z,27.80
2018-10-09T21:39:58.001Z,28.13
2018-10-09T21:42:26.568Z,29.27
2018-10-09T21:44:55.030Z,26.70
2018-10-09T21:47:24.632Z,27.07
2018-10-09T21:49:53.235Z,28.17
2018-10-09T21:52:22.091Z,28.13
2018-10-09T21:54:50.657Z,27.80
2018-10-09T21:57:19.104Z,29.70
2018-10-09T21:59:47.544Z,30.13
2018-10-09T22:02:16.026Z,27.70
2018-10-09T22:04:44.468Z,29.67
2018-10-09T22:07:16.430Z,27.63
2018-10-09T22:09:45.200Z,27.77
2018-10-09T22:12:13.952Z,29.07
2018-10-09T22:14:42.423Z,32.13
2018-10-09T22:17:10.858Z,30.50
2018-10-09T22:19:39.929Z,33.03
2018-10-09T22:22:08.481Z,33.30
2018-10-09T22:24:36.937Z,32.37
2018-10-09T22:27:05.386Z,31.30
2018-10-09T22:29:33.841Z,29.97
2018-10-09T22:32:02.353Z,33.87
2018-10-09T22:34:30.794Z,28.83
2018-10-09T22:36:59.349Z,31.10
2018-10-09T22:39:27.791Z,30.60
2018-10-09T22:41:56.310Z,32.47
2018-10-09T22:44:24.858Z,31.30
2018-10-09T22:46:53.317Z,35.20
2018-10-09T22:49:22.015Z,34.70
2018-10-09T22:51:50.444Z,31.57
2018-10-09T22:54:18.995Z,32.77
2018-10-09T22:56:47.466Z,32.03
2018-10-09T22:59:15.988Z,34.60
2018-10-09T23:01:44.433Z,31.23
2018-10-09T23:04:12.885Z,31.73
2018-10-09T23:06:41.393Z,32.43
2018-10-09T23:09:11.516Z,32.97
2018-10-09T23:11:40.069Z,32.73
2018-10-09T23:14:08.534Z,32.23
2018-10-09T23:16:37.352Z,35.80
2018-10-09T23:19:06.229Z,32.70
2018-10-09T23:21:34.801Z,31.13
2018-10-09T23:24:03.267Z,32.10
2018-10-09T23:26:32.419Z,36.27
2018-10-09T23:29:01.454Z,33.97
2018-10-09T23:31:29.978Z,33.87
2018-10-09T23:33:58.433Z,35.50
2018-10-09T23:36:26.888Z,31.50
2018-10-09T23:38:55.646Z,34.60
2018-10-09T23:41:24.308Z,33.87
2018-10-09T23:43:52.732Z,32.93
2018-10-09T23:46:21.300Z,34.97
2018-10-09T23:48:49.967Z,35.20
2018-10-09T23:51:18.407Z,36.03
2018-10-09T23:53:46.915Z,36.20
2018-10-09T23:56:15.354Z,36.00
2018-10-09T23:58:43.876Z,38.20
